createdAt,value
2018-03-08T00:00:45.722Z,98314.44
2018-03-08T00:03:26.520Z,98322.98
2018-03-08T00:05:54.083Z,98333.19
2018-03-08T00:08:21.586Z,98333.69
2018-03-08T00:10:50.083Z,98345.11
2018-03-08T00:13:20.994Z,98348.95
2018-03-08T00:15:49.572Z,98348.91
2018-03-08T00:18:17.693Z,98350.19
2018-03-08T00:20:45.525Z,98367.19
2018-03-08T00:23:14.637Z,98354.46
2018-03-08T00:25:42.292Z,98354.41
2018-03-08T00:28:09.745Z,98357.84
2018-03-08T00:30:37.611Z,98370.41
2018-03-08T00:33:05.053Z,98361.52
2018-03-08T00:35:32.510Z,98356.02
2018-03-08T00:38:01.019Z,98355.55
2018-03-08T00:40:28.753Z,98351.70
2018-03-08T00:42:57.228Z,98347.00
2018-03-08T00:45:24.688Z,98341.93
2018-03-08T00:50:24.099Z,98347.67
2018-03-08T00:52:51.586Z,98339.25
2018-03-08T00:55:19.027Z,98338.36
2018-03-08T00:57:46.508Z,98331.59
2018-03-08T01:00:14.987Z,98336.53
2018-03-08T01:02:42.426Z,98349.27
2018-03-08T01:05:09.904Z,98348.84
2018-03-08T01:07:37.386Z,98347.61
2018-03-08T01:10:04.848Z,98347.09
2018-03-08T01:12:32.319Z,98350.91
2018-03-08T01:14:59.754Z,98344.52
2018-03-08T01:17:27.189Z,98347.37
2018-03-08T01:19:54.688Z,98352.35
2018-03-08T01:22:22.171Z,98346.80
2018-03-08T01:24:49.656Z,98345.05
2018-03-08T01:27:17.119Z,98355.06
2018-03-08T01:29:44.577Z,98349.50
2018-03-08T01:32:12.071Z,98347.66
2018-03-08T01:34:39.568Z,98355.23
2018-03-08T01:37:07.028Z,98353.48
2018-03-08T01:39:34.503Z,98353.95
2018-03-08T01:42:01.951Z,98353.95
2018-03-08T01:44:29.399Z,98353.69
2018-03-08T01:46:56.857Z,98340.34
2018-03-08T01:49:24.312Z,98339.55
2018-03-08T01:52:03.568Z,98351.20
2018-03-08T01:54:31.068Z,98338.59
2018-03-08T01:56:58.558Z,98343.89
2018-03-08T01:59:26.049Z,98350.08
2018-03-08T02:01:53.509Z,98341.34
2018-03-08T02:04:21.507Z,98345.59
2018-03-08T02:06:48.968Z,98350.56
2018-03-08T02:09:16.422Z,98353.91
2018-03-08T02:11:43.932Z,98351.94
2018-03-08T02:14:11.385Z,98358.72
2018-03-08T02:16:38.876Z,98348.28
2018-03-08T02:19:06.309Z,98360.19
2018-03-08T02:21:33.742Z,98361.84
2018-03-08T02:24:01.237Z,98360.45
2018-03-08T02:26:28.720Z,98372.64
2018-03-08T02:28:56.190Z,98379.00
2018-03-08T02:31:23.643Z,98381.59
2018-03-08T02:33:51.118Z,98375.86
2018-03-08T02:36:18.580Z,98383.81
2018-03-08T02:38:46.090Z,98383.13
2018-03-08T02:41:13.548Z,98377.30
2018-03-08T02:43:41.009Z,98381.42
2018-03-08T02:46:08.516Z,98377.02
2018-03-08T02:48:35.973Z,98390.27
2018-03-08T02:51:03.422Z,98390.16
2018-03-08T02:53:30.953Z,98393.87
2018-03-08T02:55:58.396Z,98395.63
2018-03-08T02:58:25.872Z,98393.08
2018-03-08T03:00:53.321Z,98399.31
2018-03-08T03:03:21.747Z,98394.50
2018-03-08T03:05:49.201Z,98412.20
2018-03-08T03:08:16.681Z,98402.34
2018-03-08T03:10:44.143Z,98405.78
2018-03-08T03:13:11.652Z,98397.63
2018-03-08T03:15:39.120Z,98404.78
2018-03-08T03:18:06.570Z,98404.77
2018-03-08T03:20:34.239Z,98396.84
2018-03-08T03:23:01.712Z,98396.90
2018-03-08T03:25:29.171Z,98403.41
2018-03-08T03:27:56.639Z,98405.53
2018-03-08T03:30:24.080Z,98400.28
2018-03-08T03:32:52.174Z,98404.56
2018-03-08T03:35:19.633Z,98396.30
2018-03-08T03:37:47.066Z,98401.92
2018-03-08T03:40:14.556Z,98401.17
2018-03-08T03:42:42.013Z,98414.01
2018-03-08T03:45:09.451Z,98397.85
2018-03-08T03:47:36.907Z,98413.03
2018-03-08T03:50:04.825Z,98403.34
2018-03-08T03:52:32.625Z,98402.51
2018-03-08T03:55:00.077Z,98408.06
2018-03-08T03:57:27.531Z,98406.27
2018-03-08T03:59:55.020Z,98407.00
2018-03-08T04:02:22.460Z,98405.78
2018-03-08T04:04:49.916Z,98407.00
2018-03-08T04:07:17.374Z,98417.97
2018-03-08T04:09:44.830Z,98407.00
2018-03-08T04:12:13.553Z,98415.80
2018-03-08T04:14:41.020Z,98416.69
2018-03-08T04:17:09.494Z,98418.06
2018-03-08T04:19:37.687Z,98414.32
2018-03-08T04:22:05.146Z,98426.07
2018-03-08T04:24:32.587Z,98431.21
2018-03-08T04:27:00.037Z,98429.16
2018-03-08T04:29:27.482Z,98430.42
2018-03-08T04:31:54.914Z,98435.14
2018-03-08T04:34:22.362Z,98434.75
2018-03-08T04:36:49.815Z,98446.47
2018-03-08T04:39:17.391Z,98441.27
2018-03-08T04:41:44.832Z,98451.92
2018-03-08T04:44:12.272Z,98441.17
2018-03-08T04:46:39.734Z,98446.73
2018-03-08T04:49:07.182Z,98453.46
2018-03-08T04:51:34.611Z,98450.55
2018-03-08T04:54:02.275Z,98460.23
2018-03-08T04:56:30.577Z,98465.70
2018-03-08T04:58:59.412Z,98476.70
2018-03-08T05:01:26.877Z,98489.84
2018-03-08T05:03:54.331Z,98486.92
2018-03-08T05:06:21.755Z,98481.23
2018-03-08T05:08:49.211Z,98491.12
2018-03-08T05:11:16.672Z,98491.11
2018-03-08T05:13:50.054Z,98492.97
2018-03-08T05:16:17.546Z,98505.90
2018-03-08T05:18:45.143Z,98504.00
2018-03-08T05:21:12.624Z,98501.29
2018-03-08T05:23:40.103Z,98516.02
2018-03-08T05:26:08.388Z,98514.37
2018-03-08T05:28:36.142Z,98520.26
2018-03-08T05:31:03.618Z,98532.59
2018-03-08T05:33:31.095Z,98525.03
2018-03-08T05:35:58.607Z,98544.95
2018-03-08T05:38:26.044Z,98536.84
2018-03-08T05:40:53.491Z,98542.41
2018-03-08T05:43:20.951Z,98538.27
2018-03-08T05:45:48.441Z,98543.77
2018-03-08T05:48:15.891Z,98548.91
2018-03-08T05:50:44.792Z,98560.63
2018-03-08T05:53:13.132Z,98563.27
2018-03-08T05:55:40.695Z,98569.00
2018-03-08T05:58:08.722Z,98569.91
2018-03-08T06:00:36.197Z,98588.32
2018-03-08T06:03:03.670Z,98589.11
2018-03-08T06:05:31.116Z,98591.23
2018-03-08T06:07:58.580Z,98592.89
2018-03-08T06:10:26.047Z,98600.00
2018-03-08T06:12:54.408Z,98598.86
2018-03-08T06:15:21.867Z,98601.83
2018-03-08T06:17:49.302Z,98607.72
2018-03-08T06:20:16.788Z,98607.58
2018-03-08T06:22:44.280Z,98602.91
2018-03-08T06:25:13.130Z,98611.06
2018-03-08T06:27:40.590Z,98623.87
2018-03-08T06:30:08.048Z,98619.16
2018-03-08T06:32:35.981Z,98636.20
2018-03-08T06:35:04.197Z,98640.27
2018-03-08T06:37:31.667Z,98633.48
2018-03-08T06:39:59.154Z,98631.84
2018-03-08T06:42:28.175Z,98640.31
2018-03-08T06:44:55.653Z,98659.30
2018-03-08T06:47:23.108Z,98666.36
2018-03-08T06:49:50.563Z,98671.07
2018-03-08T06:52:18.108Z,98675.17
2018-03-08T06:54:45.557Z,98681.91
2018-03-08T06:57:13.010Z,98679.88
2018-03-08T06:59:40.473Z,98693.27
2018-03-08T07:02:07.912Z,98701.66
2018-03-08T07:04:35.362Z,98704.16
2018-03-08T07:07:02.814Z,98703.83
2018-03-08T07:09:30.256Z,98700.24
2018-03-08T07:11:57.711Z,98706.52
2018-03-08T07:14:25.199Z,98693.88
2018-03-08T07:16:52.732Z,98691.81
2018-03-08T07:19:20.164Z,98692.48
2018-03-08T07:21:47.627Z,98694.35
2018-03-08T07:24:15.078Z,98691.42
2018-03-08T07:26:42.515Z,98685.53
2018-03-08T07:29:10.009Z,98694.59
2018-03-08T07:31:37.483Z,98694.49
2018-03-08T07:34:04.931Z,98687.88
2018-03-08T07:36:32.443Z,98689.74
2018-03-08T07:38:59.884Z,98698.08
2018-03-08T07:54:22.535Z,98699.29
2018-03-08T07:56:50.038Z,98703.17
2018-03-08T07:59:17.532Z,98705.06
2018-03-08T08:01:44.990Z,98708.16
2018-03-08T08:04:24.269Z,98715.31
2018-03-08T08:09:54.806Z,98712.27
2018-03-08T08:12:22.314Z,98709.91
2018-03-08T08:14:49.766Z,98720.06
2018-03-08T08:17:17.217Z,98714.89
2018-03-08T08:19:44.667Z,98723.47
2018-03-08T08:22:12.148Z,98730.19
2018-03-08T08:24:39.670Z,98715.64
2018-03-08T08:27:07.108Z,98728.02
2018-03-08T08:29:34.593Z,98731.44
2018-03-08T08:32:02.084Z,98750.45
2018-03-08T08:34:29.723Z,98742.44
2018-03-08T08:36:57.199Z,98726.64
2018-03-08T08:39:24.674Z,98734.38
2018-03-08T08:41:52.122Z,98736.50
2018-03-08T08:44:19.623Z,98738.87
2018-03-08T08:46:47.097Z,98741.85
2018-03-08T08:49:14.567Z,98739.66
2018-03-08T08:51:42.030Z,98746.34
2018-03-08T08:54:09.584Z,98743.70
2018-03-08T08:56:37.160Z,98736.67
2018-03-08T08:59:04.608Z,98730.88
2018-03-08T09:01:32.047Z,98735.53
2018-03-08T09:03:59.497Z,98738.41
2018-03-08T09:06:27.056Z,98749.69
2018-03-08T09:08:54.517Z,98751.45
2018-03-08T09:11:22.075Z,98750.47
2018-03-08T09:13:49.536Z,98760.95
2018-03-08T09:16:17.023Z,98757.33
2018-03-08T09:18:45.624Z,98778.70
2018-03-08T09:21:13.276Z,98761.11
2018-03-08T09:23:44.938Z,98773.16
2018-03-08T09:26:26.129Z,98775.02
2018-03-08T09:28:55.868Z,98768.19
2018-03-08T09:31:23.767Z,98780.97
2018-03-08T09:33:51.616Z,98761.17
2018-03-08T09:36:20.947Z,98759.31
2018-03-08T09:43:56.663Z,98760.78
2018-03-08T09:46:25.956Z,98781.05
2018-03-08T09:48:54.992Z,98782.05
2018-03-08T09:54:00.901Z,98766.42
2018-03-08T10:01:51.799Z,98765.50
2018-03-08T10:06:54.821Z,98766.58
2018-03-08T10:11:57.560Z,98773.52
2018-03-08T10:17:12.145Z,98777.85
2018-03-08T10:19:41.370Z,98768.19
2018-03-08T10:29:54.628Z,98761.92
2018-03-08T10:32:23.892Z,98762.83
2018-03-08T10:34:51.957Z,98772.77
2018-03-08T10:50:05.663Z,98785.78
2018-03-08T10:52:34.932Z,98771.53
2018-03-08T10:55:02.797Z,98767.39
2018-03-08T10:57:34.476Z,98779.20
2018-03-08T11:02:46.263Z,98783.22
2018-03-08T11:05:13.991Z,98778.09
2018-03-08T11:07:43.675Z,98778.72
2018-03-08T11:12:45.974Z,98762.64
2018-03-08T11:15:15.815Z,98771.09
2018-03-08T11:20:17.728Z,98776.16
2018-03-08T11:25:23.962Z,98775.01
2018-03-08T11:30:25.630Z,98781.41
2018-03-08T11:32:53.135Z,98773.81
2018-03-08T11:35:20.676Z,98766.08
2018-03-08T11:37:48.186Z,98782.52
2018-03-08T11:40:15.940Z,98773.98
2018-03-08T11:42:43.846Z,98773.97
2018-03-08T11:45:11.355Z,98766.77
2018-03-08T11:47:38.860Z,98772.82
2018-03-08T11:50:06.368Z,98781.02
2018-03-08T11:52:33.836Z,98777.31
2018-03-08T11:55:01.374Z,98781.02
2018-03-08T11:57:28.896Z,98777.68
2018-03-08T11:59:56.454Z,98775.35
2018-03-08T12:02:23.949Z,98773.73
2018-03-08T12:04:51.437Z,98771.52
2018-03-08T12:07:18.962Z,98782.10
2018-03-08T12:09:46.547Z,98772.45
2018-03-08T12:12:14.092Z,98785.33
2018-03-08T12:14:41.649Z,98770.69
2018-03-08T12:17:09.183Z,98771.17
2018-03-08T12:19:36.696Z,98777.38
2018-03-08T12:22:04.171Z,98775.89
2018-03-08T12:24:31.664Z,98778.51
2018-03-08T12:26:59.512Z,98782.70
2018-03-08T12:29:27.024Z,98784.56
2018-03-08T12:31:54.541Z,98774.94
2018-03-08T12:34:23.017Z,98776.08
2018-03-08T12:36:50.533Z,98769.58
2018-03-08T12:39:18.176Z,98774.12
2018-03-08T12:41:46.121Z,98781.22
2018-03-08T12:44:14.041Z,98776.98
2018-03-08T12:46:41.596Z,98780.36
2018-03-08T12:49:09.109Z,98791.75
2018-03-08T12:51:36.802Z,98797.10
2018-03-08T12:54:04.944Z,98780.86
2018-03-08T12:56:33.159Z,98779.69
2018-03-08T12:59:00.802Z,98790.94
2018-03-08T13:01:28.756Z,98785.93
2018-03-08T13:03:56.520Z,98778.77
2018-03-08T13:06:24.619Z,98790.22
2018-03-08T13:08:52.210Z,98768.96
2018-03-08T13:11:20.371Z,98772.78
2018-03-08T13:13:47.922Z,98763.39
2018-03-08T13:16:15.752Z,98769.89
2018-03-08T13:18:44.500Z,98768.67
2018-03-08T13:21:12.057Z,98755.99
2018-03-08T13:23:39.718Z,98763.91
2018-03-08T13:26:07.303Z,98767.38
2018-03-08T13:28:34.875Z,98775.74
2018-03-08T13:31:02.503Z,98772.33
2018-03-08T13:33:30.032Z,98768.70
2018-03-08T13:35:57.596Z,98774.01
2018-03-08T13:38:25.229Z,98774.86
2018-03-08T13:40:52.848Z,98773.18
2018-03-08T13:43:20.699Z,98778.80
2018-03-08T13:45:48.372Z,98767.84
2018-03-08T13:48:16.207Z,98773.10
2018-03-08T13:50:44.159Z,98775.52
2018-03-08T13:53:11.645Z,98776.02
2018-03-08T13:55:39.704Z,98777.98
2018-03-08T13:58:07.291Z,98772.59
2018-03-08T14:00:34.832Z,98770.78
2018-03-08T14:03:06.385Z,98772.70
2018-03-08T14:05:34.602Z,98772.17
2018-03-08T14:08:02.178Z,98778.61
2018-03-08T14:10:30.446Z,98774.31
2018-03-08T14:12:58.032Z,98774.81
2018-03-08T14:15:25.701Z,98774.50
2018-03-08T14:17:53.853Z,98771.31
2018-03-08T14:20:21.362Z,98765.34
2018-03-08T14:22:48.998Z,98763.36
2018-03-08T14:25:16.639Z,98762.47
2018-03-08T14:27:44.306Z,98773.72
2018-03-08T14:30:11.781Z,98770.34
2018-03-08T14:32:39.396Z,98760.36
2018-03-08T14:35:07.255Z,98776.75
2018-03-08T14:37:35.212Z,98772.45
2018-03-08T14:40:02.787Z,98781.63
2018-03-08T14:42:30.574Z,98765.46
2018-03-08T14:44:58.236Z,98776.68
2018-03-08T14:47:25.815Z,98782.63
2018-03-08T14:49:53.326Z,98776.00
2018-03-08T14:52:20.767Z,98768.96
2018-03-08T14:54:48.248Z,98773.97
2018-03-08T14:57:16.326Z,98768.37
2018-03-08T14:59:43.898Z,98773.31
2018-03-08T15:02:11.567Z,98776.05
2018-03-08T15:04:39.038Z,98774.09
2018-03-08T15:07:06.515Z,98788.06
2018-03-08T15:09:33.989Z,98776.00
2018-03-08T15:12:01.506Z,98777.59
2018-03-08T15:14:29.129Z,98776.35
2018-03-08T15:16:56.644Z,98775.63
2018-03-08T15:19:24.109Z,98773.42
2018-03-08T15:21:51.587Z,98776.46
2018-03-08T15:24:19.093Z,98764.38
2018-03-08T15:26:46.561Z,98776.06
2018-03-08T15:29:14.080Z,98781.03
2018-03-08T15:31:41.567Z,98769.37
2018-03-08T15:34:09.111Z,98767.81
2018-03-08T15:36:36.637Z,98775.06
2018-03-08T15:39:04.244Z,98775.28
2018-03-08T15:41:31.738Z,98777.04
2018-03-08T15:43:59.444Z,98779.71
2018-03-08T15:46:27.460Z,98775.33
2018-03-08T15:48:54.984Z,98785.20
2018-03-08T15:51:22.533Z,98782.72
2018-03-08T15:53:50.009Z,98774.52
2018-03-08T15:56:17.503Z,98786.80
2018-03-08T15:58:45.008Z,98783.77
2018-03-08T16:01:12.500Z,98791.10
2018-03-08T16:03:40.029Z,98783.03
2018-03-08T16:06:07.504Z,98786.31
2018-03-08T16:09:06.606Z,98781.42
2018-03-08T16:11:34.101Z,98784.90
2018-03-08T16:14:01.632Z,98790.17
2018-03-08T16:16:29.878Z,98780.04
2018-03-08T16:18:57.380Z,98786.06
2018-03-08T16:21:24.933Z,98776.30
2018-03-08T16:23:52.407Z,98774.34
2018-03-08T16:26:19.868Z,98778.62
2018-03-08T16:28:47.412Z,98772.91
2018-03-08T16:31:14.974Z,98781.00
2018-03-08T16:33:42.418Z,98780.97
2018-03-08T16:36:09.881Z,98778.72
2018-03-08T16:38:37.376Z,98775.04
2018-03-08T16:41:04.834Z,98773.23
2018-03-08T16:43:32.359Z,98774.86
2018-03-08T16:45:59.846Z,98770.39
2018-03-08T16:48:29.019Z,98764.05
2018-03-08T16:50:56.476Z,98771.41
2018-03-08T16:53:23.962Z,98775.69
2018-03-08T16:55:51.428Z,98773.02
2018-03-08T16:58:18.989Z,98771.80
2018-03-08T17:00:46.585Z,98778.61
2018-03-08T17:03:14.283Z,98779.02
2018-03-08T17:05:41.824Z,98781.37
2018-03-08T17:08:09.310Z,98784.64
2018-03-08T17:10:36.818Z,98788.52
2018-03-08T17:13:04.398Z,98787.98
2018-03-08T17:15:31.885Z,98787.39
2018-03-08T17:17:59.364Z,98788.97
2018-03-08T17:20:26.844Z,98786.44
2018-03-08T17:22:54.305Z,98792.14
2018-03-08T17:25:21.811Z,98795.48
2018-03-08T17:27:49.357Z,98795.36
2018-03-08T17:30:16.824Z,98798.70
2018-03-08T17:32:44.315Z,98795.24
2018-03-08T17:35:13.787Z,98788.93
2018-03-08T17:37:41.253Z,98780.66
2018-03-08T17:40:08.743Z,98793.84
2018-03-08T17:42:36.265Z,98783.75
2018-03-08T17:47:37.595Z,98785.52
2018-03-08T17:50:05.079Z,98791.95
2018-03-08T17:52:32.622Z,98801.23
2018-03-08T17:55:00.229Z,98814.41
2018-03-08T17:57:27.766Z,98830.84
2018-03-08T17:59:55.282Z,98836.84
2018-03-08T18:02:22.768Z,98841.98
2018-03-08T18:04:50.327Z,98841.45
2018-03-08T18:07:17.958Z,98849.20
2018-03-08T18:09:45.731Z,98846.65
2018-03-08T18:12:13.315Z,98845.66
2018-03-08T18:14:40.982Z,98844.80
2018-03-08T18:17:08.515Z,98848.39
2018-03-08T18:19:36.054Z,98851.31
2018-03-08T18:22:03.529Z,98856.51
2018-03-08T18:24:31.020Z,98845.69
2018-03-08T18:26:58.520Z,98841.87
2018-03-08T18:29:26.023Z,98845.48
2018-03-08T18:31:53.538Z,98843.06
2018-03-08T18:34:21.060Z,98850.66
2018-03-08T18:36:48.561Z,98857.91
2018-03-08T18:39:16.869Z,98855.41
2018-03-08T18:41:44.340Z,98856.80
2018-03-08T18:44:11.885Z,98859.49
2018-03-08T18:46:39.353Z,98862.11
2018-03-08T18:49:06.852Z,98862.15
2018-03-08T18:51:34.560Z,98858.27
2018-03-08T18:54:02.059Z,98855.80
2018-03-08T18:56:30.696Z,98857.56
2018-03-08T18:58:58.140Z,98858.91
2018-03-08T19:01:25.678Z,98855.27
2018-03-08T19:03:53.214Z,98845.09
2018-03-08T19:06:20.792Z,98847.77
2018-03-08T19:08:48.301Z,98843.63
2018-03-08T19:11:15.867Z,98842.88
2018-03-08T19:13:43.476Z,98848.52
2018-03-08T19:16:11.005Z,98846.48
2018-03-08T19:18:38.497Z,98843.61
2018-03-08T19:21:06.020Z,98841.15
2018-03-08T19:23:37.610Z,98837.42
2018-03-08T19:26:05.140Z,98836.16
2018-03-08T19:28:33.570Z,98834.09
2018-03-08T19:31:01.276Z,98840.06
2018-03-08T19:33:28.825Z,98835.25
2018-03-08T19:35:56.436Z,98837.88
2018-03-08T19:38:23.960Z,98832.45
2018-03-08T19:40:51.440Z,98830.33
2018-03-08T19:43:18.936Z,98832.52
2018-03-08T19:45:46.560Z,98832.98
2018-03-08T19:48:14.120Z,98833.42
2018-03-08T19:50:42.787Z,98824.55
2018-03-08T19:53:10.297Z,98824.12
2018-03-08T19:55:37.800Z,98823.17
2018-03-08T19:58:05.326Z,98821.19
2018-03-08T20:00:32.853Z,98824.23
2018-03-08T20:03:00.455Z,98828.09
2018-03-08T20:05:28.050Z,98823.01
2018-03-08T20:07:55.591Z,98828.98
2018-03-08T20:10:23.876Z,98823.07
2018-03-08T20:12:51.360Z,98815.44
2018-03-08T20:15:18.835Z,98818.44
2018-03-08T20:17:46.401Z,98820.22
2018-03-08T20:20:13.941Z,98807.05
2018-03-08T20:22:41.588Z,98812.48
2018-03-08T20:25:09.206Z,98816.27
2018-03-08T20:27:36.710Z,98818.38
2018-03-08T20:30:04.284Z,98817.16
2018-03-08T20:32:34.528Z,98805.75
2018-03-08T20:35:01.985Z,98808.44
2018-03-08T20:37:29.533Z,98805.14
2018-03-08T20:39:57.113Z,98807.75
2018-03-08T20:42:25.465Z,98809.03
2018-03-08T20:44:52.990Z,98804.42
2018-03-08T20:47:22.609Z,98800.58
2018-03-08T20:49:50.094Z,98806.53
2018-03-08T20:52:17.615Z,98810.80
2018-03-08T20:54:45.103Z,98814.61
2018-03-08T20:57:12.621Z,98813.34
2018-03-08T20:59:40.150Z,98813.77
2018-03-08T21:02:07.656Z,98807.49
2018-03-08T21:04:36.191Z,98805.37
2018-03-08T21:07:03.903Z,98803.31
2018-03-08T21:22:26.544Z,98811.41
2018-03-08T21:24:54.023Z,98813.13
2018-03-08T21:27:21.579Z,98811.86
2018-03-08T21:29:49.139Z,98807.63
2018-03-08T21:32:18.066Z,98797.92
2018-03-08T21:34:45.565Z,98791.58
2018-03-08T21:37:13.107Z,98794.13
2018-03-08T21:39:40.611Z,98792.88
2018-03-08T21:42:08.140Z,98790.78
2018-03-08T21:44:35.651Z,98776.79
2018-03-08T21:47:04.400Z,98782.29
2018-03-08T21:49:31.955Z,98781.50
2018-03-08T21:51:59.467Z,98776.02
2018-03-08T21:54:28.303Z,98781.08
2018-03-08T21:57:10.130Z,98772.23
2018-03-08T21:59:37.657Z,98767.63
2018-03-08T22:02:06.277Z,98762.54
2018-03-08T22:07:08.165Z,98759.20
2018-03-08T22:09:35.640Z,98764.27
2018-03-08T22:12:03.271Z,98763.86
2018-03-08T22:14:32.329Z,98763.01
2018-03-08T22:16:59.872Z,98760.89
2018-03-08T22:19:27.384Z,98757.95
2018-03-08T22:21:54.881Z,98758.79
2018-03-08T22:24:22.429Z,98755.00
2018-03-08T22:26:49.947Z,98756.70
2018-03-08T22:29:17.416Z,98755.44
2018-03-08T22:31:45.041Z,98746.59
2018-03-08T22:34:13.068Z,98746.58
2018-03-08T22:36:40.704Z,98748.28
2018-03-08T22:39:08.175Z,98755.42
2018-03-08T22:41:35.852Z,98752.91
2018-03-08T22:44:03.327Z,98752.48
2018-03-08T22:46:30.871Z,98754.58
2018-03-08T22:48:58.381Z,98752.91
2018-03-08T22:51:25.891Z,98751.21
2018-03-08T22:53:54.980Z,98745.32
2018-03-08T22:56:22.563Z,98742.35
2018-03-08T22:58:50.128Z,98745.74
2018-03-08T23:04:17.967Z,98749.96
2018-03-08T23:06:45.647Z,98746.57
2018-03-08T23:09:13.234Z,98748.27
2018-03-08T23:11:40.749Z,98744.06
2018-03-08T23:14:08.249Z,98746.98
2018-03-08T23:16:36.047Z,98747.02
2018-03-08T23:19:03.610Z,98763.00
2018-03-08T23:21:31.100Z,98763.00
2018-03-08T23:23:58.639Z,98768.50
2018-03-08T23:26:26.236Z,98771.84
2018-03-08T23:28:53.756Z,98771.42
2018-03-08T23:31:21.239Z,98772.27
2018-03-08T23:33:48.717Z,98772.70
2018-03-08T23:36:16.193Z,98779.85
2018-03-08T23:38:43.752Z,98769.34
2018-03-08T23:41:12.908Z,98767.22
2018-03-08T23:43:42.148Z,98768.08
2018-03-08T23:46:09.659Z,98774.39
2018-03-08T23:48:37.223Z,98770.61
2018-03-08T23:51:04.831Z,98771.43
2018-03-08T23:53:32.298Z,98761.33
2018-03-08T23:55:59.822Z,98763.45
2018-03-08T23:58:27.337Z,98763.44
